Thunder radar more information blitzortung!


Radar de pluja more information rain snow radar


Visita la nostra xarxa de llocs de meteo:

Template documentation
and downloads

And another site



Wind From: 11-12-2017 11:00 Until: 14:59 warning for: Wind Level: Yellow info button

Pagina Historial Weather Underground text

Diari Resum Juny 12, 2016 Unitats:  Mètric    Imperial   Tant
« Previous Dia
SegĂźent Dia »
Diari Setmana Mensual Anual Personalitzada
  Maxima: Minima: Media:
Temperatura: 30.2 °C 16.5 °C 22.1 °C
Punt de rosada: 16.3 °C 6.3 °C 12.4 °C
Humitat: 83 % 24 % 59 %
Wind Speed: 12.9 km/h 0.0 km/h 4.3 km/h
RĂ fegues de vent: 24.1 km/h - -
Vent:- - SSE
Pression baro: 1015.8 hPa 1010.7 hPa -
Precipitacions: 0.0 mm    
Historical Graphs
 
 
Dades de taula per Juny 12, 2016
Temps Temperatura Punt de rosada Pression baro Vent Wind Speed RĂ fegues de vent Humitat Rainfall Rate (Hourly)
00:00 17.3 °C 12.2 °C 1013.8 hPa SW 1.6 km/h   72 % 0.0 mm
00:10 17.4 °C 12.3 °C 1013.8 hPa SW 1.6 km/h   72 % 0.0 mm
00:20 17.4 °C 12.5 °C 1013.8 hPa SW 1.6 km/h   73 % 0.0 mm
00:30 17.2 °C 12.3 °C 1013.8 hPa SW 1.6 km/h   73 % 0.0 mm
00:40 17.0 °C 12.3 °C 1013.8 hPa SW 1.6 km/h   74 % 0.0 mm
00:50 16.7 °C 12.2 °C 1013.8 hPa SW 1.6 km/h   75 % 0.0 mm
01:00 16.7 °C 12.2 °C 1013.8 hPa SW 1.6 km/h   75 % 0.0 mm
01:10 16.7 °C 12.2 °C 1013.8 hPa SW 1.6 km/h   75 % 0.0 mm
01:20 16.7 °C 12.2 °C 1013.8 hPa SW 1.6 km/h   75 % 0.0 mm
01:30 16.5 °C 12.1 °C 1013.8 hPa SW 1.6 km/h   75 % 0.0 mm
01:40 16.7 °C 12.2 °C 1013.8 hPa SW 1.6 km/h   75 % 0.0 mm
01:50 16.7 °C 12.2 °C 1013.8 hPa SW 1.6 km/h   75 % 0.0 mm
02:00 16.8 °C 12.3 °C 1013.8 hPa SW 1.6 km/h   75 % 0.0 mm
02:10 16.7 °C 12.2 °C 1013.8 hPa SW 1.6 km/h   75 % 0.0 mm
02:20 16.9 °C 12.4 °C 1014.8 hPa SW 1.6 km/h   75 % 0.0 mm
02:30 17.1 °C 12.4 °C 1014.8 hPa SW 1.6 km/h   74 % 0.0 mm
02:40 17.4 °C 12.7 °C 1014.8 hPa SSW 1.6 km/h 1.6 km/h 74 % 0.0 mm
02:50 17.6 °C 12.7 °C 1014.8 hPa ENE 1.6 km/h 3.2 km/h 73 % 0.0 mm
03:00 17.8 °C 12.9 °C 1014.8 hPa NE 1.6 km/h 3.2 km/h 73 % 0.0 mm
03:10 17.9 °C 12.8 °C 1014.8 hPa Calm   1.6 km/h 72 % 0.0 mm
03:20 18.2 °C 13.1 °C 1014.8 hPa Calm   1.6 km/h 72 % 0.0 mm
03:30 18.2 °C 13.1 °C 1014.8 hPa Calm   1.6 km/h 72 % 0.0 mm
03:40 18.3 °C 13.2 °C 1014.8 hPa Calm   3.2 km/h 72 % 0.0 mm
03:50 18.6 °C 13.4 °C 1014.8 hPa SW 1.6 km/h 6.4 km/h 72 % 0.0 mm
04:00 18.8 °C 13.7 °C 1015.8 hPa Calm   1.6 km/h 72 % 0.0 mm
04:10 19.0 °C 13.6 °C 1015.8 hPa Calm   1.6 km/h 71 % 0.0 mm
04:20 19.1 °C 13.5 °C 1015.8 hPa ESE 1.6 km/h 3.2 km/h 70 % 0.0 mm
04:30 19.2 °C 13.6 °C 1015.8 hPa East 1.6 km/h 4.8 km/h 70 % 0.0 mm
04:40 19.5 °C 12.7 °C 1015.8 hPa East 3.2 km/h 6.4 km/h 65 % 0.0 mm
04:50 19.9 °C 10.6 °C 1014.8 hPa WSW 4.8 km/h 12.9 km/h 55 % 0.0 mm
05:00 20.3 °C 10.7 °C 1014.8 hPa WSW 3.2 km/h 4.8 km/h 54 % 0.0 mm
05:10 20.6 °C 10.7 °C 1014.8 hPa WSW 3.2 km/h 3.2 km/h 53 % 0.0 mm
05:20 20.7 °C 9.3 °C 1014.8 hPa WSW 4.8 km/h 12.9 km/h 48 % 0.0 mm
05:30 21.2 °C 9.4 °C 1014.8 hPa West 4.8 km/h 8.0 km/h 47 % 0.0 mm
05:40 21.4 °C 9.6 °C 1014.8 hPa West 3.2 km/h 6.4 km/h 47 % 0.0 mm
05:50 21.9 °C 9.8 °C 1014.8 hPa WSW 3.2 km/h 6.4 km/h 46 % 0.0 mm
06:00 22.1 °C 9.6 °C 1014.8 hPa WSW 3.2 km/h 8.0 km/h 45 % 0.0 mm
06:10 22.6 °C 10.1 °C 1014.8 hPa SW 4.8 km/h 4.8 km/h 45 % 0.0 mm
06:20 22.8 °C 10.2 °C 1014.8 hPa WSW 3.2 km/h 4.8 km/h 45 % 0.0 mm
06:40 23.3 °C 9.7 °C 1014.8 hPa WSW 1.6 km/h 4.8 km/h 42 % 0.0 mm
06:50 23.5 °C 9.8 °C 1014.8 hPa West 3.2 km/h 6.4 km/h 42 % 0.0 mm
07:00 24.2 °C 10.1 °C 1015.8 hPa WSW 3.2 km/h 8.0 km/h 41 % 0.0 mm
07:10 24.8 °C 10.7 °C 1015.8 hPa SW 4.8 km/h 4.8 km/h 41 % 0.0 mm
07:20 25.3 °C 9.9 °C 1014.8 hPa WSW 3.2 km/h 6.4 km/h 38 % 0.0 mm
07:30 25.4 °C 7.9 °C 1014.8 hPa WSW 4.8 km/h 11.3 km/h 33 % 0.0 mm
07:40 25.5 °C 6.7 °C 1014.8 hPa WSW 4.8 km/h 12.9 km/h 30 % 0.0 mm
07:50 25.7 °C 6.3 °C 1014.8 hPa WSW 8.0 km/h 12.9 km/h 29 % 0.0 mm
08:00 26.4 °C 6.9 °C 1014.8 hPa WSW 9.7 km/h 9.7 km/h 29 % 0.0 mm
08:10 26.4 °C 6.4 °C 1014.8 hPa WSW 4.8 km/h 11.3 km/h 28 % 0.0 mm
08:20 26.7 °C 6.7 °C 1013.8 hPa WSW 4.8 km/h 8.0 km/h 28 % 0.0 mm
08:30 27.4 °C 7.3 °C 1014.8 hPa West 4.8 km/h 9.7 km/h 28 % 0.0 mm
08:40 27.3 °C 7.2 °C 1014.8 hPa West 4.8 km/h 8.0 km/h 28 % 0.0 mm
08:50 27.7 °C 7.0 °C 1013.8 hPa WSW 3.2 km/h 6.4 km/h 27 % 0.0 mm
09:00 27.9 °C 7.2 °C 1013.8 hPa WSW 11.3 km/h 24.1 km/h 27 % 0.0 mm
09:10 28.0 °C 7.3 °C 1013.8 hPa WSW 4.8 km/h 9.7 km/h 27 % 0.0 mm
09:20 28.1 °C 6.8 °C 1013.8 hPa West 8.0 km/h 17.7 km/h 26 % 0.0 mm
09:30 28.6 °C 7.2 °C 1013.8 hPa West 4.8 km/h 6.4 km/h 26 % 0.0 mm
09:40 28.7 °C 6.7 °C 1013.8 hPa WSW 9.7 km/h 12.9 km/h 25 % 0.0 mm
09:50 29.8 °C 7.7 °C 1013.8 hPa SW 8.0 km/h 12.9 km/h 25 % 0.0 mm
10:00 29.9 °C 7.7 °C 1013.8 hPa West 8.0 km/h 12.9 km/h 25 % 0.0 mm
10:10 29.8 °C 7.7 °C 1013.8 hPa West 3.2 km/h 12.9 km/h 25 % 0.0 mm
10:20 29.8 °C 7.7 °C 1012.8 hPa WSW 8.0 km/h 12.9 km/h 25 % 0.0 mm
10:30 29.9 °C 7.7 °C 1012.8 hPa WSW 4.8 km/h 9.7 km/h 25 % 0.0 mm
10:40 30.0 °C 7.2 °C 1012.8 hPa WSW 11.3 km/h 16.1 km/h 24 % 0.0 mm
10:50 29.5 °C 6.8 °C 1012.8 hPa SW 9.7 km/h 16.1 km/h 24 % 0.0 mm
11:00 29.2 °C 6.6 °C 1012.8 hPa SW 4.8 km/h 16.1 km/h 24 % 0.0 mm
11:10 29.3 °C 6.6 °C 1012.8 hPa SW 11.3 km/h 11.3 km/h 24 % 0.0 mm
11:20 29.3 °C 6.6 °C 1012.8 hPa SW 8.0 km/h 12.9 km/h 24 % 0.0 mm
11:30 29.6 °C 6.9 °C 1012.8 hPa SW 3.2 km/h 9.7 km/h 24 % 0.0 mm
11:40 30.2 °C 7.4 °C 1012.8 hPa SW 1.6 km/h 4.8 km/h 24 % 0.0 mm
11:50 29.7 °C 7.6 °C 1012.8 hPa WSW 4.8 km/h 8.0 km/h 25 % 0.0 mm
12:00 30.1 °C 7.9 °C 1012.8 hPa WSW 4.8 km/h 6.4 km/h 25 % 0.0 mm
12:10 30.2 °C 8.0 °C 1012.8 hPa WSW 3.2 km/h 4.8 km/h 25 % 0.0 mm
12:20 27.4 °C 7.8 °C 1012.8 hPa NE 9.7 km/h 12.9 km/h 29 % 0.0 mm
12:30 26.1 °C 7.7 °C 1011.7 hPa ENE 9.7 km/h 19.3 km/h 31 % 0.0 mm
12:40 25.7 °C 9.9 °C 1011.7 hPa ENE 8.0 km/h 12.9 km/h 37 % 0.0 mm
12:50 25.6 °C 11.0 °C 1011.7 hPa East 12.9 km/h 14.5 km/h 40 % 0.0 mm
13:00 25.2 °C 12.1 °C 1011.7 hPa East 11.3 km/h 20.9 km/h 44 % 0.0 mm
13:10 25.2 °C 13.1 °C 1011.7 hPa East 8.0 km/h 14.5 km/h 47 % 0.0 mm
13:20 24.8 °C 13.3 °C 1010.7 hPa East 12.9 km/h 19.3 km/h 49 % 0.0 mm
13:30 24.8 °C 13.7 °C 1011.7 hPa East 11.3 km/h 19.3 km/h 50 % 0.0 mm
13:40 24.7 °C 13.6 °C 1011.7 hPa East 12.9 km/h 17.7 km/h 50 % 0.0 mm
13:50 24.7 °C 13.6 °C 1011.7 hPa East 12.9 km/h 19.3 km/h 50 % 0.0 mm
14:00 24.2 °C 13.4 °C 1011.7 hPa East 11.3 km/h 16.1 km/h 51 % 0.0 mm
14:10 23.9 °C 13.2 °C 1011.7 hPa ENE 11.3 km/h 16.1 km/h 51 % 0.0 mm
14:20 23.7 °C 13.6 °C 1011.7 hPa ENE 9.7 km/h 14.5 km/h 53 % 0.0 mm
14:30 23.6 °C 13.7 °C 1010.7 hPa East 4.8 km/h 12.9 km/h 54 % 0.0 mm
14:40 23.1 °C 14.4 °C 1010.7 hPa ENE 9.7 km/h 12.9 km/h 58 % 0.0 mm
14:50 23.2 °C 14.5 °C 1011.7 hPa ENE 8.0 km/h 11.3 km/h 58 % 0.0 mm
15:00 23.1 °C 14.9 °C 1011.7 hPa East 8.0 km/h 9.7 km/h 60 % 0.0 mm
15:10 22.8 °C 14.9 °C 1011.7 hPa ENE 8.0 km/h 9.7 km/h 61 % 0.0 mm
15:20 22.5 °C 15.1 °C 1012.8 hPa East 9.7 km/h 9.7 km/h 63 % 0.0 mm
15:30 22.2 °C 15.1 °C 1012.8 hPa East 8.0 km/h 11.3 km/h 64 % 0.0 mm
15:40 22.2 °C 15.3 °C 1012.8 hPa East 8.0 km/h 8.0 km/h 65 % 0.0 mm
15:50 22.0 °C 15.3 °C 1012.8 hPa ENE 4.8 km/h 8.0 km/h 66 % 0.0 mm
16:00 22.0 °C 15.3 °C 1013.8 hPa ENE 3.2 km/h 8.0 km/h 66 % 0.0 mm
16:10 21.8 °C 15.8 °C 1013.8 hPa ENE 4.8 km/h 9.7 km/h 69 % 0.0 mm
16:20 21.7 °C 15.8 °C 1013.8 hPa East 4.8 km/h 9.7 km/h 69 % 0.0 mm
16:30 21.6 °C 15.7 °C 1012.8 hPa East 8.0 km/h 8.0 km/h 69 % 0.0 mm
16:40 21.5 °C 15.6 °C 1012.8 hPa East 1.6 km/h 8.0 km/h 69 % 0.0 mm
16:50 21.4 °C 15.7 °C 1013.8 hPa East 1.6 km/h 4.8 km/h 70 % 0.0 mm
17:00 21.2 °C 15.7 °C 1013.8 hPa East 1.6 km/h 4.8 km/h 71 % 0.0 mm
17:10 21.1 °C 15.6 °C 1013.8 hPa East 1.6 km/h 4.8 km/h 71 % 0.0 mm
17:20 21.0 °C 15.6 °C 1013.8 hPa East 1.6 km/h 4.8 km/h 71 % 0.0 mm
17:30 20.9 °C 15.7 °C 1014.8 hPa East 1.6 km/h 4.8 km/h 72 % 0.0 mm
17:40 20.8 °C 15.6 °C 1014.8 hPa East 1.6 km/h 4.8 km/h 72 % 0.0 mm
17:50 20.7 °C 15.7 °C 1014.8 hPa East 1.6 km/h 4.8 km/h 73 % 0.0 mm
18:00 20.7 °C 15.7 °C 1013.8 hPa East 1.6 km/h 4.8 km/h 73 % 0.0 mm
18:10 20.6 °C 15.8 °C 1013.8 hPa East 1.6 km/h 4.8 km/h 74 % 0.0 mm
18:20 20.4 °C 15.6 °C 1014.8 hPa East 1.6 km/h 4.8 km/h 74 % 0.0 mm
18:30 20.4 °C 15.8 °C 1014.8 hPa East 1.6 km/h 4.8 km/h 75 % 0.0 mm
18:40 20.3 °C 15.9 °C 1014.8 hPa ENE 1.6 km/h 3.2 km/h 76 % 0.0 mm
18:50 20.3 °C 15.9 °C 1014.8 hPa NE 1.6 km/h 3.2 km/h 76 % 0.0 mm
19:00 20.2 °C 16.1 °C 1014.8 hPa NE 1.6 km/h 3.2 km/h 77 % 0.0 mm
19:10 20.2 °C 16.2 °C 1014.8 hPa NE 1.6 km/h 3.2 km/h 78 % 0.0 mm
19:20 20.1 °C 16.2 °C 1013.8 hPa NE 1.6 km/h 3.2 km/h 78 % 0.0 mm
19:30 20.1 °C 16.2 °C 1013.8 hPa NE 1.6 km/h 3.2 km/h 78 % 0.0 mm
19:40 20.1 °C 16.2 °C 1013.8 hPa NE 3.2 km/h 6.4 km/h 78 % 0.0 mm
19:50 19.8 °C 15.8 °C 1014.8 hPa East 3.2 km/h 6.4 km/h 78 % 0.0 mm
20:00 19.7 °C 16.2 °C 1013.8 hPa ESE 3.2 km/h 6.4 km/h 80 % 0.0 mm
20:20 19.5 °C 16.2 °C 1013.8 hPa ESE 3.2 km/h 6.4 km/h 81 % 0.0 mm
20:30 19.4 °C 16.1 °C 1013.8 hPa ESE 3.2 km/h 6.4 km/h 81 % 0.0 mm
20:40 19.3 °C 15.9 °C 1013.8 hPa ESE 3.2 km/h 6.4 km/h 81 % 0.0 mm
20:50 19.3 °C 15.9 °C 1012.8 hPa ESE 3.2 km/h 6.4 km/h 81 % 0.0 mm
21:00 19.3 °C 16.2 °C 1013.8 hPa ESE 3.2 km/h 6.4 km/h 82 % 0.0 mm
21:10 19.3 °C 16.2 °C 1013.8 hPa ESE 3.2 km/h 6.4 km/h 82 % 0.0 mm
21:20 19.3 °C 16.3 °C 1013.8 hPa ESE 3.2 km/h 6.4 km/h 83 % 0.0 mm
21:40 19.3 °C 16.3 °C 1013.8 hPa ESE 3.2 km/h 6.4 km/h 83 % 0.0 mm
21:50 19.3 °C 16.3 °C 1013.8 hPa ESE 3.2 km/h 6.4 km/h 83 % 0.0 mm
22:00 19.3 °C 16.2 °C 1013.8 hPa ESE 3.2 km/h 6.4 km/h 82 % 0.0 mm
22:10 19.3 °C 16.2 °C 1013.8 hPa ESE 3.2 km/h 6.4 km/h 82 % 0.0 mm
22:20 19.3 °C 16.2 °C 1013.8 hPa ESE 3.2 km/h 6.4 km/h 82 % 0.0 mm
22:30 19.3 °C 15.9 °C 1013.8 hPa ESE 3.2 km/h 6.4 km/h 81 % 0.0 mm
22:40 19.2 °C 15.8 °C 1013.8 hPa ESE 3.2 km/h 6.4 km/h 81 % 0.0 mm
22:50 19.1 °C 15.8 °C 1013.8 hPa ESE 3.2 km/h 6.4 km/h 81 % 0.0 mm
23:00 19.0 °C 15.7 °C 1013.8 hPa ESE 3.2 km/h 6.4 km/h 81 % 0.0 mm
23:10 18.8 °C 15.7 °C 1013.8 hPa ESE 3.2 km/h 6.4 km/h 82 % 0.0 mm
23:20 18.8 °C 15.7 °C 1013.8 hPa ESE 3.2 km/h 6.4 km/h 82 % 0.0 mm
23:30 18.7 °C 15.6 °C 1013.8 hPa ESE 3.2 km/h 6.4 km/h 82 % 0.0 mm
23:40 18.8 °C 15.7 °C 1013.8 hPa ESE 3.2 km/h 6.4 km/h 82 % 0.0 mm
23:50 18.8 °C 15.7 °C 1013.8 hPa ESE 3.2 km/h 6.4 km/h 82 % 0.0 mm
Meteo Sesrovires
Elogis d' Weather Underground - 3.25 mb

Guio original per  Jim McMurry - jmcmurry@mwt.net Adaptat per a la plantilla per  Wim van der Kuil - Leuven-Template.eu

Trobareu la nostra informacio del temps tambe a:

Weather Underground

AWEKAS